sensor_id;sensor_type;location;lat;lon;timestamp;P1;durP1;ratioP1;P2;durP2;ratioP2
49962;SDS011;36180;57.678;11.910;2023-06-14T00:01:13;6.03;;;3.50;;
49962;SDS011;36180;57.678;11.910;2023-06-14T00:03:40;6.32;;;3.47;;
49962;SDS011;36180;57.678;11.910;2023-06-14T00:06:07;8.10;;;3.45;;
49962;SDS011;36180;57.678;11.910;2023-06-14T00:08:35;6.68;;;3.97;;
49962;SDS011;36180;57.678;11.910;2023-06-14T00:11:02;4.80;;;3.75;;
49962;SDS011;36180;57.678;11.910;2023-06-14T00:13:30;6.32;;;3.88;;
49962;SDS011;36180;57.678;11.910;2023-06-14T00:15:57;3.78;;;3.13;;
49962;SDS011;36180;57.678;11.910;2023-06-14T00:18:24;10.35;;;3.60;;
49962;SDS011;36180;57.678;11.910;2023-06-14T00:20:54;4.13;;;3.40;;
49962;SDS011;36180;57.678;11.910;2023-06-14T00:23:21;5.93;;;4.38;;
49962;SDS011;36180;57.678;11.910;2023-06-14T00:25:50;7.35;;;3.72;;
49962;SDS011;36180;57.678;11.910;2023-06-14T00:28:17;7.18;;;3.95;;
49962;SDS011;36180;57.678;11.910;2023-06-14T00:30:44;7.85;;;3.70;;
49962;SDS011;36180;57.678;11.910;2023-06-14T00:33:12;6.20;;;3.65;;
49962;SDS011;36180;57.678;11.910;2023-06-14T00:35:39;4.82;;;3.83;;
49962;SDS011;36180;57.678;11.910;2023-06-14T00:38:06;4.03;;;3.55;;
49962;SDS011;36180;57.678;11.910;2023-06-14T00:40:33;6.43;;;4.25;;
49962;SDS011;36180;57.678;11.910;2023-06-14T00:43:02;4.63;;;3.38;;
49962;SDS011;36180;57.678;11.910;2023-06-14T00:45:29;13.65;;;4.03;;
49962;SDS011;36180;57.678;11.910;2023-06-14T00:48:01;5.18;;;3.63;;
49962;SDS011;36180;57.678;11.910;2023-06-14T00:50:28;6.07;;;3.92;;
49962;SDS011;36180;57.678;11.910;2023-06-14T00:52:57;9.23;;;4.00;;
49962;SDS011;36180;57.678;11.910;2023-06-14T00:55:24;5.97;;;4.35;;
49962;SDS011;36180;57.678;11.910;2023-06-14T00:57:54;8.90;;;4.30;;
49962;SDS011;36180;57.678;11.910;2023-06-14T01:00:23;7.53;;;4.40;;
49962;SDS011;36180;57.678;11.910;2023-06-14T01:02:50;7.70;;;4.35;;
49962;SDS011;36180;57.678;11.910;2023-06-14T01:05:17;7.70;;;4.50;;
49962;SDS011;36180;57.678;11.910;2023-06-14T01:07:51;8.75;;;4.22;;
49962;SDS011;36180;57.678;11.910;2023-06-14T01:10:31;11.45;;;4.90;;
49962;SDS011;36180;57.678;11.910;2023-06-14T01:13:05;6.47;;;4.57;;
49962;SDS011;36180;57.678;11.910;2023-06-14T01:15:38;8.20;;;4.43;;
49962;SDS011;36180;57.678;11.910;2023-06-14T01:18:08;9.87;;;4.47;;
49962;SDS011;36180;57.678;11.910;2023-06-14T01:20:42;7.15;;;4.53;;
49962;SDS011;36180;57.678;11.910;2023-06-14T01:23:11;7.00;;;4.05;;
49962;SDS011;36180;57.678;11.910;2023-06-14T01:25:38;7.22;;;4.20;;
49962;SDS011;36180;57.678;11.910;2023-06-14T01:28:06;5.30;;;3.63;;
49962;SDS011;36180;57.678;11.910;2023-06-14T01:30:35;9.50;;;4.10;;
49962;SDS011;36180;57.678;11.910;2023-06-14T01:33:03;4.95;;;3.88;;
49962;SDS011;36180;57.678;11.910;2023-06-14T01:35:31;6.93;;;3.85;;
49962;SDS011;36180;57.678;11.910;2023-06-14T01:38:00;10.00;;;4.35;;
49962;SDS011;36180;57.678;11.910;2023-06-14T01:40:30;12.00;;;4.15;;
49962;SDS011;36180;57.678;11.910;2023-06-14T01:42:58;9.02;;;4.65;;
49962;SDS011;36180;57.678;11.910;2023-06-14T01:45:25;8.95;;;4.30;;
49962;SDS011;36180;57.678;11.910;2023-06-14T01:47:52;5.63;;;3.95;;
49962;SDS011;36180;57.678;11.910;2023-06-14T01:50:20;5.70;;;4.00;;
49962;SDS011;36180;57.678;11.910;2023-06-14T01:52:47;5.32;;;4.22;;
49962;SDS011;36180;57.678;11.910;2023-06-14T01:55:14;9.77;;;4.10;;
49962;SDS011;36180;57.678;11.910;2023-06-14T01:57:44;9.70;;;4.82;;
49962;SDS011;36180;57.678;11.910;2023-06-14T02:00:12;7.93;;;4.88;;
49962;SDS011;36180;57.678;11.910;2023-06-14T02:02:39;8.23;;;4.60;;
49962;SDS011;36180;57.678;11.910;2023-06-14T02:05:07;7.82;;;4.60;;
49962;SDS011;36180;57.678;11.910;2023-06-14T02:07:34;7.50;;;4.65;;
49962;SDS011;36180;57.678;11.910;2023-06-14T02:10:01;8.63;;;4.97;;
49962;SDS011;36180;57.678;11.910;2023-06-14T02:12:29;10.95;;;5.10;;
49962;SDS011;36180;57.678;11.910;2023-06-14T02:14:58;10.65;;;5.72;;
49962;SDS011;36180;57.678;11.910;2023-06-14T02:17:25;8.45;;;5.00;;
49962;SDS011;36180;57.678;11.910;2023-06-14T02:19:54;8.68;;;5.13;;
49962;SDS011;36180;57.678;11.910;2023-06-14T02:22:24;8.15;;;5.70;;
49962;SDS011;36180;57.678;11.910;2023-06-14T02:24:51;9.10;;;5.35;;
49962;SDS011;36180;57.678;11.910;2023-06-14T02:27:18;9.20;;;5.90;;
49962;SDS011;36180;57.678;11.910;2023-06-14T02:29:45;9.13;;;5.35;;
49962;SDS011;36180;57.678;11.910;2023-06-14T02:32:14;9.80;;;5.88;;
49962;SDS011;36180;57.678;11.910;2023-06-14T02:34:41;9.43;;;5.32;;
49962;SDS011;36180;57.678;11.910;2023-06-14T02:37:08;7.50;;;5.68;;
49962;SDS011;36180;57.678;11.910;2023-06-14T02:39:36;11.25;;;5.57;;
49962;SDS011;36180;57.678;11.910;2023-06-14T02:42:03;11.07;;;5.80;;
49962;SDS011;36180;57.678;11.910;2023-06-14T02:44:31;11.02;;;5.40;;
49962;SDS011;36180;57.678;11.910;2023-06-14T02:46:59;11.98;;;5.80;;
49962;SDS011;36180;57.678;11.910;2023-06-14T02:49:28;9.20;;;5.80;;
49962;SDS011;36180;57.678;11.910;2023-06-14T02:51:55;9.27;;;5.60;;
49962;SDS011;36180;57.678;11.910;2023-06-14T02:54:22;7.05;;;5.55;;
49962;SDS011;36180;57.678;11.910;2023-06-14T02:56:50;7.25;;;4.90;;
49962;SDS011;36180;57.678;11.910;2023-06-14T02:59:18;10.27;;;5.03;;
49962;SDS011;36180;57.678;11.910;2023-06-14T03:01:47;8.07;;;5.38;;
49962;SDS011;36180;57.678;11.910;2023-06-14T03:04:14;8.82;;;6.13;;
49962;SDS011;36180;57.678;11.910;2023-06-14T03:06:43;9.48;;;5.90;;
49962;SDS011;36180;57.678;11.910;2023-06-14T03:09:16;7.35;;;5.75;;
49962;SDS011;36180;57.678;11.910;2023-06-14T03:11:45;9.80;;;5.85;;
49962;SDS011;36180;57.678;11.910;2023-06-14T03:14:12;8.65;;;5.75;;
49962;SDS011;36180;57.678;11.910;2023-06-14T03:16:41;11.02;;;5.75;;
49962;SDS011;36180;57.678;11.910;2023-06-14T03:19:11;11.95;;;5.53;;
49962;SDS011;36180;57.678;11.910;2023-06-14T03:21:38;8.20;;;5.40;;
49962;SDS011;36180;57.678;11.910;2023-06-14T03:24:11;8.55;;;5.53;;
49962;SDS011;36180;57.678;11.910;2023-06-14T03:26:39;10.02;;;5.60;;
49962;SDS011;36180;57.678;11.910;2023-06-14T03:29:06;7.85;;;5.53;;
49962;SDS011;36180;57.678;11.910;2023-06-14T03:31:33;7.93;;;4.97;;
49962;SDS011;36180;57.678;11.910;2023-06-14T03:34:03;7.20;;;4.93;;
49962;SDS011;36180;57.678;11.910;2023-06-14T03:36:30;7.22;;;4.47;;
49962;SDS011;36180;57.678;11.910;2023-06-14T03:38:59;5.70;;;4.13;;
49962;SDS011;36180;57.678;11.910;2023-06-14T03:41:27;7.50;;;4.45;;
49962;SDS011;36180;57.678;11.910;2023-06-14T03:43:54;6.60;;;4.25;;
49962;SDS011;36180;57.678;11.910;2023-06-14T03:46:21;5.50;;;4.30;;
49962;SDS011;36180;57.678;11.910;2023-06-14T03:48:48;7.60;;;4.50;;
49962;SDS011;36180;57.678;11.910;2023-06-14T03:51:17;5.72;;;4.80;;
49962;SDS011;36180;57.678;11.910;2023-06-14T03:53:44;7.85;;;4.18;;
49962;SDS011;36180;57.678;11.910;2023-06-14T03:56:12;6.38;;;4.15;;
49962;SDS011;36180;57.678;11.910;2023-06-14T03:58:43;5.40;;;4.55;;
49962;SDS011;36180;57.678;11.910;2023-06-14T04:01:10;8.85;;;4.95;;
49962;SDS011;36180;57.678;11.910;2023-06-14T04:03:38;10.50;;;4.65;;
49962;SDS011;36180;57.678;11.910;2023-06-14T04:06:05;5.97;;;4.38;;
49962;SDS011;36180;57.678;11.910;2023-06-14T04:08:33;7.47;;;4.70;;
49962;SDS011;36180;57.678;11.910;2023-06-14T04:11:00;6.95;;;4.40;;
49962;SDS011;36180;57.678;11.910;2023-06-14T04:13:28;12.23;;;5.20;;
49962;SDS011;36180;57.678;11.910;2023-06-14T04:15:56;5.93;;;4.60;;
49962;SDS011;36180;57.678;11.910;2023-06-14T04:18:31;5.68;;;4.30;;
49962;SDS011;36180;57.678;11.910;2023-06-14T04:20:59;8.50;;;5.10;;
49962;SDS011;36180;57.678;11.910;2023-06-14T04:23:28;6.38;;;4.35;;
49962;SDS011;36180;57.678;11.910;2023-06-14T04:25:55;8.60;;;4.78;;
49962;SDS011;36180;57.678;11.910;2023-06-14T04:28:27;6.65;;;4.43;;
49962;SDS011;36180;57.678;11.910;2023-06-14T04:30:58;6.25;;;4.25;;
49962;SDS011;36180;57.678;11.910;2023-06-14T04:33:29;8.43;;;4.25;;
49962;SDS011;36180;57.678;11.910;2023-06-14T04:35:57;8.15;;;4.45;;
49962;SDS011;36180;57.678;11.910;2023-06-14T04:38:25;4.38;;;3.92;;
49962;SDS011;36180;57.678;11.910;2023-06-14T04:40:53;9.40;;;4.53;;
49962;SDS011;36180;57.678;11.910;2023-06-14T04:43:23;5.60;;;3.97;;
49962;SDS011;36180;57.678;11.910;2023-06-14T04:45:51;6.60;;;4.07;;
49962;SDS011;36180;57.678;11.910;2023-06-14T04:48:21;8.07;;;4.38;;
49962;SDS011;36180;57.678;11.910;2023-06-14T04:50:50;8.82;;;4.15;;
49962;SDS011;36180;57.678;11.910;2023-06-14T04:53:18;7.93;;;4.00;;
49962;SDS011;36180;57.678;11.910;2023-06-14T04:55:49;5.63;;;4.30;;
49962;SDS011;36180;57.678;11.910;2023-06-14T04:58:18;4.78;;;3.80;;
49962;SDS011;36180;57.678;11.910;2023-06-14T05:00:46;6.60;;;3.97;;
49962;SDS011;36180;57.678;11.910;2023-06-14T05:03:13;9.93;;;4.47;;
49962;SDS011;36180;57.678;11.910;2023-06-14T05:05:42;6.85;;;4.15;;
49962;SDS011;36180;57.678;11.910;2023-06-14T05:08:09;5.32;;;4.00;;
49962;SDS011;36180;57.678;11.910;2023-06-14T05:10:37;7.45;;;4.40;;
49962;SDS011;36180;57.678;11.910;2023-06-14T05:13:04;8.60;;;4.22;;
49962;SDS011;36180;57.678;11.910;2023-06-14T05:15:31;8.65;;;3.80;;
49962;SDS011;36180;57.678;11.910;2023-06-14T05:17:59;5.95;;;3.65;;
49962;SDS011;36180;57.678;11.910;2023-06-14T05:20:26;7.82;;;3.70;;
49962;SDS011;36180;57.678;11.910;2023-06-14T05:22:55;8.10;;;3.72;;
49962;SDS011;36180;57.678;11.910;2023-06-14T05:25:22;4.07;;;3.55;;
49962;SDS011;36180;57.678;11.910;2023-06-14T05:27:49;8.18;;;4.20;;
49962;SDS011;36180;57.678;11.910;2023-06-14T05:30:16;9.05;;;4.18;;
49962;SDS011;36180;57.678;11.910;2023-06-14T05:32:43;7.82;;;4.10;;
49962;SDS011;36180;57.678;11.910;2023-06-14T05:35:11;6.22;;;3.97;;
49962;SDS011;36180;57.678;11.910;2023-06-14T05:37:38;6.07;;;3.78;;
49962;SDS011;36180;57.678;11.910;2023-06-14T05:40:07;8.30;;;3.92;;
49962;SDS011;36180;57.678;11.910;2023-06-14T05:42:35;6.63;;;3.90;;
49962;SDS011;36180;57.678;11.910;2023-06-14T05:45:02;5.75;;;4.00;;
49962;SDS011;36180;57.678;11.910;2023-06-14T05:47:31;4.53;;;4.00;;
49962;SDS011;36180;57.678;11.910;2023-06-14T05:49:58;5.70;;;3.72;;
49962;SDS011;36180;57.678;11.910;2023-06-14T05:52:25;5.30;;;4.15;;
49962;SDS011;36180;57.678;11.910;2023-06-14T05:54:53;9.90;;;5.07;;
49962;SDS011;36180;57.678;11.910;2023-06-14T05:57:21;6.22;;;4.03;;
49962;SDS011;36180;57.678;11.910;2023-06-14T05:59:48;7.80;;;4.10;;
49962;SDS011;36180;57.678;11.910;2023-06-14T06:02:16;10.55;;;4.53;;
49962;SDS011;36180;57.678;11.910;2023-06-14T06:04:43;8.68;;;5.00;;
49962;SDS011;36180;57.678;11.910;2023-06-14T06:07:10;12.50;;;4.80;;
49962;SDS011;36180;57.678;11.910;2023-06-14T06:09:37;5.00;;;4.45;;
49962;SDS011;36180;57.678;11.910;2023-06-14T06:12:06;9.98;;;4.90;;
49962;SDS011;36180;57.678;11.910;2023-06-14T06:14:34;6.35;;;4.50;;
49962;SDS011;36180;57.678;11.910;2023-06-14T06:17:02;5.68;;;4.18;;
49962;SDS011;36180;57.678;11.910;2023-06-14T06:19:29;6.53;;;4.07;;
49962;SDS011;36180;57.678;11.910;2023-06-14T06:21:56;7.68;;;4.65;;
49962;SDS011;36180;57.678;11.910;2023-06-14T06:24:23;9.30;;;4.32;;
49962;SDS011;36180;57.678;11.910;2023-06-14T06:26:50;6.75;;;4.20;;
49962;SDS011;36180;57.678;11.910;2023-06-14T06:29:17;6.45;;;4.43;;
49962;SDS011;36180;57.678;11.910;2023-06-14T06:31:46;6.53;;;3.97;;
49962;SDS011;36180;57.678;11.910;2023-06-14T06:34:13;7.70;;;3.90;;
49962;SDS011;36180;57.678;11.910;2023-06-14T06:36:40;5.88;;;4.03;;
49962;SDS011;36180;57.678;11.910;2023-06-14T06:39:07;7.45;;;4.43;;
49962;SDS011;36180;57.678;11.910;2023-06-14T06:41:35;8.80;;;4.28;;
49962;SDS011;36180;57.678;11.910;2023-06-14T06:44:04;12.43;;;4.28;;
49962;SDS011;36180;57.678;11.910;2023-06-14T06:46:32;6.40;;;3.45;;
49962;SDS011;36180;57.678;11.910;2023-06-14T06:49:01;7.00;;;4.05;;
49962;SDS011;36180;57.678;11.910;2023-06-14T06:51:28;10.23;;;4.53;;
49962;SDS011;36180;57.678;11.910;2023-06-14T06:53:55;11.25;;;4.95;;
49962;SDS011;36180;57.678;11.910;2023-06-14T06:56:22;11.18;;;4.72;;
49962;SDS011;36180;57.678;11.910;2023-06-14T06:58:49;8.68;;;4.22;;
49962;SDS011;36180;57.678;11.910;2023-06-14T07:01:16;8.35;;;4.82;;
49962;SDS011;36180;57.678;11.910;2023-06-14T07:03:44;8.80;;;4.45;;
49962;SDS011;36180;57.678;11.910;2023-06-14T07:06:12;13.63;;;4.88;;
49962;SDS011;36180;57.678;11.910;2023-06-14T07:08:39;11.38;;;4.30;;
49962;SDS011;36180;57.678;11.910;2023-06-14T07:11:06;7.63;;;4.53;;
49962;SDS011;36180;57.678;11.910;2023-06-14T07:13:33;6.78;;;3.72;;
49962;SDS011;36180;57.678;11.910;2023-06-14T07:16:01;6.82;;;4.55;;
49962;SDS011;36180;57.678;11.910;2023-06-14T07:18:31;8.77;;;4.50;;
49962;SDS011;36180;57.678;11.910;2023-06-14T07:20:58;12.45;;;4.32;;
49962;SDS011;36180;57.678;11.910;2023-06-14T07:23:26;9.93;;;4.50;;
49962;SDS011;36180;57.678;11.910;2023-06-14T07:25:53;12.05;;;4.82;;
49962;SDS011;36180;57.678;11.910;2023-06-14T07:28:20;13.48;;;4.75;;
49962;SDS011;36180;57.678;11.910;2023-06-14T07:30:47;9.15;;;4.50;;
49962;SDS011;36180;57.678;11.910;2023-06-14T07:33:15;13.98;;;4.60;;
49962;SDS011;36180;57.678;11.910;2023-06-14T07:35:42;10.00;;;4.40;;
49962;SDS011;36180;57.678;11.910;2023-06-14T07:38:09;7.93;;;3.90;;
49962;SDS011;36180;57.678;11.910;2023-06-14T07:40:37;6.75;;;3.53;;
49962;SDS011;36180;57.678;11.910;2023-06-14T07:43:04;8.57;;;4.32;;
49962;SDS011;36180;57.678;11.910;2023-06-14T07:45:31;5.40;;;4.32;;
49962;SDS011;36180;57.678;11.910;2023-06-14T07:47:58;8.20;;;4.22;;
49962;SDS011;36180;57.678;11.910;2023-06-14T07:50:25;7.25;;;3.90;;
49962;SDS011;36180;57.678;11.910;2023-06-14T07:52:52;11.75;;;4.57;;
49962;SDS011;36180;57.678;11.910;2023-06-14T07:55:20;12.85;;;4.40;;
49962;SDS011;36180;57.678;11.910;2023-06-14T07:57:48;11.02;;;4.35;;
49962;SDS011;36180;57.678;11.910;2023-06-14T08:00:16;6.28;;;4.25;;
49962;SDS011;36180;57.678;11.910;2023-06-14T08:02:44;8.23;;;3.90;;
49962;SDS011;36180;57.678;11.910;2023-06-14T08:05:11;6.53;;;4.40;;
49962;SDS011;36180;57.678;11.910;2023-06-14T08:07:39;10.15;;;4.03;;
49962;SDS011;36180;57.678;11.910;2023-06-14T08:10:06;8.98;;;4.15;;
49962;SDS011;36180;57.678;11.910;2023-06-14T08:12:34;7.50;;;4.32;;
49962;SDS011;36180;57.678;11.910;2023-06-14T08:15:02;12.45;;;4.97;;
49962;SDS011;36180;57.678;11.910;2023-06-14T08:17:30;8.05;;;4.50;;
49962;SDS011;36180;57.678;11.910;2023-06-14T08:19:57;7.85;;;4.25;;
49962;SDS011;36180;57.678;11.910;2023-06-14T08:22:24;10.90;;;4.60;;
49962;SDS011;36180;57.678;11.910;2023-06-14T08:24:53;11.00;;;4.80;;
49962;SDS011;36180;57.678;11.910;2023-06-14T08:27:20;11.82;;;4.60;;
49962;SDS011;36180;57.678;11.910;2023-06-14T08:29:47;10.13;;;4.38;;
49962;SDS011;36180;57.678;11.910;2023-06-14T08:32:16;9.00;;;4.22;;
49962;SDS011;36180;57.678;11.910;2023-06-14T08:34:43;9.15;;;4.35;;
49962;SDS011;36180;57.678;11.910;2023-06-14T08:37:10;9.93;;;4.20;;
49962;SDS011;36180;57.678;11.910;2023-06-14T08:39:37;10.80;;;3.95;;
49962;SDS011;36180;57.678;11.910;2023-06-14T08:42:05;8.93;;;4.10;;
49962;SDS011;36180;57.678;11.910;2023-06-14T08:44:33;13.90;;;4.45;;
49962;SDS011;36180;57.678;11.910;2023-06-14T08:47:00;9.80;;;4.00;;
49962;SDS011;36180;57.678;11.910;2023-06-14T08:49:30;12.45;;;4.20;;
49962;SDS011;36180;57.678;11.910;2023-06-14T08:51:58;15.65;;;4.30;;
49962;SDS011;36180;57.678;11.910;2023-06-14T08:54:26;15.32;;;4.65;;
49962;SDS011;36180;57.678;11.910;2023-06-14T08:56:55;9.80;;;4.45;;
49962;SDS011;36180;57.678;11.910;2023-06-14T08:59:23;8.43;;;3.90;;
49962;SDS011;36180;57.678;11.910;2023-06-14T09:01:52;10.05;;;4.45;;
49962;SDS011;36180;57.678;11.910;2023-06-14T09:04:19;11.35;;;4.53;;
49962;SDS011;36180;57.678;11.910;2023-06-14T09:06:48;8.90;;;4.35;;
49962;SDS011;36180;57.678;11.910;2023-06-14T09:09:18;13.15;;;4.60;;
49962;SDS011;36180;57.678;11.910;2023-06-14T09:11:46;10.63;;;4.63;;
49962;SDS011;36180;57.678;11.910;2023-06-14T09:14:13;12.90;;;4.70;;
49962;SDS011;36180;57.678;11.910;2023-06-14T09:16:40;7.63;;;4.00;;
49962;SDS011;36180;57.678;11.910;2023-06-14T09:19:07;12.27;;;3.97;;
49962;SDS011;36180;57.678;11.910;2023-06-14T09:21:35;10.35;;;4.40;;
49962;SDS011;36180;57.678;11.910;2023-06-14T09:24:04;13.23;;;3.83;;
49962;SDS011;36180;57.678;11.910;2023-06-14T09:26:32;12.68;;;4.65;;
49962;SDS011;36180;57.678;11.910;2023-06-14T09:28:59;7.40;;;4.03;;
49962;SDS011;36180;57.678;11.910;2023-06-14T09:31:26;11.85;;;4.30;;
49962;SDS011;36180;57.678;11.910;2023-06-14T09:33:56;13.75;;;4.15;;
49962;SDS011;36180;57.678;11.910;2023-06-14T09:36:24;6.68;;;4.57;;
49962;SDS011;36180;57.678;11.910;2023-06-14T09:38:52;6.55;;;3.90;;
49962;SDS011;36180;57.678;11.910;2023-06-14T09:41:21;11.93;;;4.82;;
49962;SDS011;36180;57.678;11.910;2023-06-14T09:43:57;7.95;;;4.25;;
49962;SDS011;36180;57.678;11.910;2023-06-14T09:46:26;6.15;;;3.78;;
49962;SDS011;36180;57.678;11.910;2023-06-14T09:48:54;7.53;;;4.18;;
49962;SDS011;36180;57.678;11.910;2023-06-14T09:51:21;5.72;;;4.18;;
49962;SDS011;36180;57.678;11.910;2023-06-14T09:53:50;11.27;;;4.20;;
49962;SDS011;36180;57.678;11.910;2023-06-14T09:56:22;5.28;;;3.60;;
49962;SDS011;36180;57.678;11.910;2023-06-14T09:58:55;7.78;;;4.00;;
49962;SDS011;36180;57.678;11.910;2023-06-14T10:01:23;6.20;;;4.22;;
49962;SDS011;36180;57.678;11.910;2023-06-14T10:03:53;8.48;;;3.40;;
49962;SDS011;36180;57.678;11.910;2023-06-14T10:06:22;5.35;;;3.75;;
49962;SDS011;36180;57.678;11.910;2023-06-14T10:08:50;9.15;;;3.95;;
49962;SDS011;36180;57.678;11.910;2023-06-14T10:11:18;6.20;;;4.28;;
49962;SDS011;36180;57.678;11.910;2023-06-14T10:13:46;7.15;;;4.00;;
49962;SDS011;36180;57.678;11.910;2023-06-14T10:16:15;4.32;;;3.92;;
49962;SDS011;36180;57.678;11.910;2023-06-14T10:21:32;5.30;;;4.05;;
49962;SDS011;36180;57.678;11.910;2023-06-14T10:24:04;6.45;;;3.97;;
49962;SDS011;36180;57.678;11.910;2023-06-14T10:26:33;6.95;;;4.03;;
49962;SDS011;36180;57.678;11.910;2023-06-14T10:29:08;7.50;;;3.78;;
49962;SDS011;36180;57.678;11.910;2023-06-14T10:31:42;5.78;;;3.55;;
49962;SDS011;36180;57.678;11.910;2023-06-14T10:34:10;4.93;;;3.70;;
49962;SDS011;36180;57.678;11.910;2023-06-14T10:36:37;7.38;;;3.42;;
49962;SDS011;36180;57.678;11.910;2023-06-14T10:39:06;3.90;;;3.50;;
49962;SDS011;36180;57.678;11.910;2023-06-14T10:41:35;7.40;;;3.80;;
49962;SDS011;36180;57.678;11.910;2023-06-14T10:47:23;3.60;;;3.10;;
49962;SDS011;36180;57.678;11.910;2023-06-14T10:49:52;8.13;;;3.50;;
49962;SDS011;36180;57.678;11.910;2023-06-14T10:52:23;4.75;;;3.65;;
49962;SDS011;36180;57.678;11.910;2023-06-14T10:54:59;4.57;;;2.85;;
49962;SDS011;36180;57.678;11.910;2023-06-14T10:57:36;5.03;;;3.70;;
49962;SDS011;36180;57.678;11.910;2023-06-14T11:00:05;3.67;;;3.00;;
49962;SDS011;36180;57.678;11.910;2023-06-14T11:02:51;4.80;;;3.50;;
49962;SDS011;36180;57.678;11.910;2023-06-14T11:05:35;8.00;;;3.33;;
49962;SDS011;36180;57.678;11.910;2023-06-14T11:08:23;4.40;;;3.05;;
49962;SDS011;36180;57.678;11.910;2023-06-14T11:10:57;6.45;;;3.10;;
49962;SDS011;36180;57.678;11.910;2023-06-14T11:13:31;5.00;;;3.20;;
49962;SDS011;36180;57.678;11.910;2023-06-14T11:16:09;6.53;;;3.15;;
49962;SDS011;36180;57.678;11.910;2023-06-14T11:18:38;7.13;;;2.97;;
49962;SDS011;36180;57.678;11.910;2023-06-14T11:21:06;4.97;;;3.03;;
49962;SDS011;36180;57.678;11.910;2023-06-14T11:23:34;4.82;;;2.67;;
49962;SDS011;36180;57.678;11.910;2023-06-14T11:26:01;5.80;;;3.00;;
49962;SDS011;36180;57.678;11.910;2023-06-14T11:28:36;4.30;;;2.97;;
49962;SDS011;36180;57.678;11.910;2023-06-14T11:31:06;5.05;;;3.05;;
49962;SDS011;36180;57.678;11.910;2023-06-14T11:33:34;5.25;;;3.03;;
49962;SDS011;36180;57.678;11.910;2023-06-14T11:36:03;5.90;;;2.78;;
49962;SDS011;36180;57.678;11.910;2023-06-14T11:38:35;5.43;;;3.20;;
49962;SDS011;36180;57.678;11.910;2023-06-14T11:41:02;4.50;;;3.00;;
49962;SDS011;36180;57.678;11.910;2023-06-14T11:43:29;3.75;;;2.90;;
49962;SDS011;36180;57.678;11.910;2023-06-14T11:45:58;5.78;;;3.20;;
49962;SDS011;36180;57.678;11.910;2023-06-14T11:48:35;3.95;;;2.83;;
49962;SDS011;36180;57.678;11.910;2023-06-14T11:51:04;5.20;;;3.03;;
49962;SDS011;36180;57.678;11.910;2023-06-14T11:53:31;5.10;;;3.17;;
49962;SDS011;36180;57.678;11.910;2023-06-14T11:55:58;5.13;;;3.25;;
49962;SDS011;36180;57.678;11.910;2023-06-14T11:58:26;4.40;;;2.80;;
49962;SDS011;36180;57.678;11.910;2023-06-14T12:00:53;4.03;;;2.80;;
49962;SDS011;36180;57.678;11.910;2023-06-14T12:03:22;4.57;;;2.70;;
49962;SDS011;36180;57.678;11.910;2023-06-14T12:05:50;11.00;;;3.00;;
49962;SDS011;36180;57.678;11.910;2023-06-14T12:08:33;4.93;;;3.05;;
49962;SDS011;36180;57.678;11.910;2023-06-14T12:11:05;5.47;;;3.22;;
49962;SDS011;36180;57.678;11.910;2023-06-14T12:13:33;9.13;;;3.17;;
49962;SDS011;36180;57.678;11.910;2023-06-14T12:16:01;5.20;;;2.83;;
49962;SDS011;36180;57.678;11.910;2023-06-14T12:18:33;7.00;;;3.00;;
49962;SDS011;36180;57.678;11.910;2023-06-14T12:21:01;5.57;;;3.30;;
49962;SDS011;36180;57.678;11.910;2023-06-14T12:23:44;6.05;;;3.08;;
49962;SDS011;36180;57.678;11.910;2023-06-14T12:26:14;4.90;;;3.22;;
49962;SDS011;36180;57.678;11.910;2023-06-14T12:28:42;9.02;;;3.22;;
49962;SDS011;36180;57.678;11.910;2023-06-14T12:31:10;14.18;;;3.97;;
49962;SDS011;36180;57.678;11.910;2023-06-14T12:33:38;16.00;;;3.20;;
49962;SDS011;36180;57.678;11.910;2023-06-14T12:36:06;5.95;;;2.83;;
49962;SDS011;36180;57.678;11.910;2023-06-14T12:38:35;11.00;;;3.15;;
49962;SDS011;36180;57.678;11.910;2023-06-14T12:41:03;11.95;;;3.60;;
49962;SDS011;36180;57.678;11.910;2023-06-14T12:43:31;16.23;;;3.72;;
49962;SDS011;36180;57.678;11.910;2023-06-14T12:45:58;12.15;;;3.30;;
49962;SDS011;36180;57.678;11.910;2023-06-14T12:48:25;10.65;;;3.45;;
49962;SDS011;36180;57.678;11.910;2023-06-14T12:50:52;7.43;;;3.45;;
49962;SDS011;36180;57.678;11.910;2023-06-14T12:53:19;10.15;;;3.40;;
49962;SDS011;36180;57.678;11.910;2023-06-14T12:55:48;5.57;;;2.88;;
49962;SDS011;36180;57.678;11.910;2023-06-14T12:58:17;10.77;;;3.00;;
49962;SDS011;36180;57.678;11.910;2023-06-14T13:00:44;9.80;;;3.30;;
49962;SDS011;36180;57.678;11.910;2023-06-14T13:03:12;13.25;;;3.55;;
49962;SDS011;36180;57.678;11.910;2023-06-14T13:05:39;4.25;;;2.95;;
49962;SDS011;36180;57.678;11.910;2023-06-14T13:08:06;7.43;;;3.35;;
49962;SDS011;36180;57.678;11.910;2023-06-14T13:10:34;7.63;;;3.40;;
49962;SDS011;36180;57.678;11.910;2023-06-14T13:13:01;7.07;;;2.72;;
49962;SDS011;36180;57.678;11.910;2023-06-14T13:15:30;10.95;;;3.35;;
49962;SDS011;36180;57.678;11.910;2023-06-14T13:17:57;8.55;;;3.50;;
49962;SDS011;36180;57.678;11.910;2023-06-14T13:20:24;7.32;;;3.08;;
49962;SDS011;36180;57.678;11.910;2023-06-14T13:22:51;6.20;;;3.15;;
49962;SDS011;36180;57.678;11.910;2023-06-14T13:25:18;7.82;;;3.20;;
49962;SDS011;36180;57.678;11.910;2023-06-14T13:27:47;13.00;;;3.70;;
49962;SDS011;36180;57.678;11.910;2023-06-14T13:30:14;6.85;;;3.22;;
49962;SDS011;36180;57.678;11.910;2023-06-14T13:32:43;7.10;;;2.95;;
49962;SDS011;36180;57.678;11.910;2023-06-14T13:35:10;10.05;;;2.97;;
49962;SDS011;36180;57.678;11.910;2023-06-14T13:37:37;8.13;;;3.35;;
49962;SDS011;36180;57.678;11.910;2023-06-14T13:40:05;16.23;;;3.45;;
49962;SDS011;36180;57.678;11.910;2023-06-14T13:42:33;10.27;;;3.05;;
49962;SDS011;36180;57.678;11.910;2023-06-14T13:45:01;10.07;;;3.50;;
49962;SDS011;36180;57.678;11.910;2023-06-14T13:47:28;7.38;;;2.80;;
49962;SDS011;36180;57.678;11.910;2023-06-14T13:49:58;12.00;;;3.10;;
49962;SDS011;36180;57.678;11.910;2023-06-14T13:52:25;10.35;;;3.47;;
49962;SDS011;36180;57.678;11.910;2023-06-14T13:54:52;15.25;;;3.83;;
49962;SDS011;36180;57.678;11.910;2023-06-14T13:57:20;13.73;;;3.58;;
49962;SDS011;36180;57.678;11.910;2023-06-14T13:59:47;8.70;;;3.10;;
49962;SDS011;36180;57.678;11.910;2023-06-14T14:02:14;14.02;;;3.40;;
49962;SDS011;36180;57.678;11.910;2023-06-14T14:04:42;6.53;;;2.72;;
49962;SDS011;36180;57.678;11.910;2023-06-14T14:07:10;6.57;;;2.85;;
49962;SDS011;36180;57.678;11.910;2023-06-14T14:09:37;9.02;;;3.03;;
49962;SDS011;36180;57.678;11.910;2023-06-14T14:12:05;8.60;;;3.45;;
49962;SDS011;36180;57.678;11.910;2023-06-14T14:14:32;4.40;;;3.13;;
49962;SDS011;36180;57.678;11.910;2023-06-14T14:16:59;6.50;;;2.88;;
49962;SDS011;36180;57.678;11.910;2023-06-14T14:19:26;6.05;;;2.90;;
49962;SDS011;36180;57.678;11.910;2023-06-14T14:21:53;8.77;;;3.33;;
49962;SDS011;36180;57.678;11.910;2023-06-14T14:24:22;15.55;;;3.50;;
49962;SDS011;36180;57.678;11.910;2023-06-14T14:26:49;11.27;;;3.47;;
49962;SDS011;36180;57.678;11.910;2023-06-14T14:29:19;10.80;;;3.25;;
49962;SDS011;36180;57.678;11.910;2023-06-14T14:31:46;11.45;;;3.22;;
49962;SDS011;36180;57.678;11.910;2023-06-14T14:34:13;7.10;;;3.40;;
49962;SDS011;36180;57.678;11.910;2023-06-14T14:36:40;8.07;;;2.97;;
49962;SDS011;36180;57.678;11.910;2023-06-14T14:39:07;10.82;;;3.42;;
49962;SDS011;36180;57.678;11.910;2023-06-14T14:41:36;9.02;;;3.47;;
49962;SDS011;36180;57.678;11.910;2023-06-14T14:44:05;9.20;;;3.40;;